createdAt,value
2019-02-08T00:01:58.375Z,50.00
2019-02-08T00:04:00.016Z,49.89
2019-02-08T00:06:01.655Z,49.59
2019-02-08T00:08:03.279Z,49.53
2019-02-08T00:10:04.919Z,49.54
2019-02-08T00:12:06.541Z,49.65
2019-02-08T00:14:08.152Z,49.43
2019-02-08T00:16:09.810Z,49.31
2019-02-08T00:18:11.423Z,49.41
2019-02-08T00:20:13.014Z,49.41
2019-02-08T00:22:14.621Z,49.50
2019-02-08T00:24:16.226Z,49.51
2019-02-08T00:26:17.833Z,49.52
2019-02-08T00:28:19.477Z,49.46
2019-02-08T00:30:21.085Z,49.81
2019-02-08T00:32:22.725Z,49.76
2019-02-08T00:34:24.371Z,49.99
2019-02-08T00:36:25.987Z,50.27
2019-02-08T00:38:27.589Z,50.66
2019-02-08T00:40:29.239Z,50.71
2019-02-08T00:42:30.896Z,50.30
2019-02-08T00:44:32.502Z,50.34
2019-02-08T00:46:34.151Z,50.51
2019-02-08T00:48:35.747Z,50.09
2019-02-08T00:50:37.393Z,50.11
2019-02-08T00:52:38.994Z,50.29
2019-02-08T00:54:40.638Z,50.25
2019-02-08T00:56:42.266Z,50.66
2019-02-08T00:58:43.961Z,51.23
2019-02-08T01:00:45.562Z,51.15
2019-02-08T01:02:47.161Z,51.36
2019-02-08T01:04:48.762Z,51.92
2019-02-08T01:06:50.365Z,51.79
2019-02-08T01:08:51.975Z,52.11
2019-02-08T01:10:53.593Z,52.14
2019-02-08T01:12:55.244Z,52.16
2019-02-08T01:14:56.856Z,52.31
2019-02-08T01:16:58.457Z,52.54
2019-02-08T01:19:00.081Z,52.59
2019-02-08T01:21:01.716Z,52.72
2019-02-08T01:23:03.308Z,52.77
2019-02-08T01:25:04.928Z,52.70
2019-02-08T01:27:06.525Z,53.00
2019-02-08T01:29:08.126Z,53.30
2019-02-08T01:31:09.722Z,53.53
2019-02-08T01:33:11.366Z,53.62
2019-02-08T01:35:12.974Z,54.01
2019-02-08T01:37:14.569Z,54.32
2019-02-08T01:39:16.179Z,54.39
2019-02-08T01:41:17.773Z,54.45
2019-02-08T01:43:19.378Z,54.51
2019-02-08T01:45:21.002Z,54.52
2019-02-08T01:47:22.597Z,54.57
2019-02-08T01:49:24.204Z,54.66
2019-02-08T01:51:25.841Z,54.94
2019-02-08T01:53:27.433Z,54.90
2019-02-08T01:55:29.024Z,54.98
2019-02-08T01:57:30.639Z,55.15
2019-02-08T01:59:32.224Z,55.58
2019-02-08T02:01:33.827Z,55.64
2019-02-08T02:03:35.455Z,55.49
2019-02-08T02:05:37.039Z,55.55
2019-02-08T02:07:38.634Z,55.46
2019-02-08T02:09:40.237Z,55.89
2019-02-08T02:11:41.835Z,56.08
2019-02-08T02:13:43.472Z,56.17
2019-02-08T02:15:45.083Z,55.90
2019-02-08T02:17:46.681Z,56.29
2019-02-08T02:19:48.269Z,56.43
2019-02-08T02:21:49.866Z,56.26
2019-02-08T02:23:55.945Z,56.45
2019-02-08T02:25:53.134Z,56.33
2019-02-08T02:27:54.759Z,56.10
2019-02-08T02:29:56.372Z,55.99
2019-02-08T02:31:57.969Z,55.60
2019-02-08T02:33:59.570Z,55.38
2019-02-08T02:36:01.166Z,55.21
2019-02-08T02:38:02.789Z,55.29
2019-02-08T02:40:04.401Z,54.69
2019-02-08T02:42:06.013Z,54.27
2019-02-08T02:44:07.595Z,54.35
2019-02-08T02:46:09.229Z,54.21
2019-02-08T02:48:10.811Z,53.95
2019-02-08T02:50:12.425Z,53.63
2019-02-08T02:52:14.040Z,53.59
2019-02-08T02:54:15.624Z,53.51
2019-02-08T02:56:17.233Z,53.53
2019-02-08T02:58:18.840Z,53.45
2019-02-08T03:00:20.437Z,53.49
2019-02-08T03:02:22.039Z,53.48
2019-02-08T03:04:23.671Z,53.59
2019-02-08T03:06:25.286Z,53.60
2019-02-08T03:08:26.879Z,53.67
2019-02-08T03:10:28.478Z,53.68
2019-02-08T03:12:30.083Z,53.72
2019-02-08T03:14:31.685Z,53.76
2019-02-08T03:16:33.289Z,53.86
2019-02-08T03:18:34.926Z,54.08
2019-02-08T03:20:36.523Z,54.22
2019-02-08T03:22:38.135Z,54.12
2019-02-08T03:24:39.752Z,54.17
2019-02-08T03:26:41.386Z,54.10
2019-02-08T03:28:42.977Z,54.34
2019-02-08T03:30:46.400Z,54.12
2019-02-08T03:32:48.004Z,54.19
2019-02-08T03:34:49.616Z,54.47
2019-02-08T03:36:51.214Z,54.48
2019-02-08T03:38:52.802Z,54.64
2019-02-08T03:40:54.417Z,54.49
2019-02-08T03:42:56.028Z,54.64
2019-02-08T03:44:57.612Z,55.36
2019-02-08T03:46:59.206Z,55.49
2019-02-08T03:49:00.797Z,55.70
2019-02-08T03:51:02.407Z,55.35
2019-02-08T03:53:04.002Z,55.65
2019-02-08T03:55:05.591Z,55.72
2019-02-08T03:57:07.186Z,56.04
2019-02-08T03:59:08.782Z,55.98
2019-02-08T04:01:10.387Z,56.06
2019-02-08T04:03:12.020Z,56.00
2019-02-08T04:05:13.613Z,56.13
2019-02-08T04:07:15.199Z,55.85
2019-02-08T04:09:16.824Z,55.90
2019-02-08T04:11:18.436Z,55.63
2019-02-08T04:13:20.076Z,55.64
2019-02-08T04:15:21.698Z,55.39
2019-02-08T04:17:23.304Z,55.58
2019-02-08T04:19:24.925Z,55.50
2019-02-08T04:21:26.537Z,55.58
2019-02-08T04:23:28.138Z,55.50
2019-02-08T04:25:29.776Z,55.42
2019-02-08T04:27:31.377Z,55.39
2019-02-08T04:29:32.984Z,55.96
2019-02-08T04:31:34.590Z,55.78
2019-02-08T04:33:36.229Z,55.86
2019-02-08T04:35:37.848Z,55.80
2019-02-08T04:37:39.451Z,55.77
2019-02-08T04:39:41.055Z,55.56
2019-02-08T04:41:42.649Z,55.64
2019-02-08T04:43:44.296Z,55.66
2019-02-08T04:45:45.893Z,55.66
2019-02-08T04:47:47.486Z,55.68
2019-02-08T04:49:49.097Z,55.73
2019-02-08T04:51:50.693Z,55.51
2019-02-08T04:53:52.304Z,55.59
2019-02-08T04:55:53.892Z,55.55
2019-02-08T04:57:55.527Z,55.57
2019-02-08T04:59:57.123Z,55.54
2019-02-08T05:01:58.722Z,55.50
2019-02-08T05:04:00.362Z,55.53
2019-02-08T05:06:01.967Z,55.46
2019-02-08T05:08:03.566Z,55.70
2019-02-08T05:10:05.167Z,55.64
2019-02-08T05:12:06.763Z,55.64
2019-02-08T05:14:08.361Z,55.82
2019-02-08T05:16:09.957Z,55.89
2019-02-08T05:18:11.608Z,56.18
2019-02-08T05:20:13.221Z,57.27
2019-02-08T05:22:14.856Z,55.44
2019-02-08T05:24:16.508Z,55.09
2019-02-08T05:26:18.096Z,55.45
2019-02-08T05:28:19.694Z,55.51
2019-02-08T05:30:21.345Z,55.50
2019-02-08T05:32:22.946Z,55.31
2019-02-08T05:34:24.545Z,55.21
2019-02-08T05:36:26.169Z,55.27
2019-02-08T05:38:27.803Z,54.91
2019-02-08T05:40:29.414Z,54.82
2019-02-08T05:42:31.022Z,54.59
2019-02-08T05:44:32.622Z,54.47
2019-02-08T05:46:34.221Z,54.47
2019-02-08T05:48:35.817Z,54.46
2019-02-08T05:50:37.464Z,53.90
2019-02-08T05:52:39.078Z,53.68
2019-02-08T05:54:40.665Z,53.54
2019-02-08T05:56:42.268Z,53.30
2019-02-08T05:58:43.880Z,53.51
2019-02-08T06:00:47.564Z,53.28
2019-02-08T06:02:49.256Z,53.25
2019-02-08T06:04:50.868Z,53.44
2019-02-08T06:06:52.467Z,53.56
2019-02-08T06:08:54.116Z,53.79
2019-02-08T06:10:56.456Z,53.71
2019-02-08T06:12:58.053Z,53.84
2019-02-08T06:14:59.665Z,53.93
2019-02-08T06:17:01.308Z,54.06
2019-02-08T06:19:02.905Z,54.23
2019-02-08T06:21:04.508Z,54.16
2019-02-08T06:23:06.133Z,54.21
2019-02-08T06:25:07.736Z,54.18
2019-02-08T06:27:09.343Z,54.34
2019-02-08T06:29:10.941Z,54.31
2019-02-08T06:31:12.546Z,54.38
2019-02-08T06:33:14.209Z,54.54
2019-02-08T06:35:15.819Z,54.45
2019-02-08T06:37:17.422Z,54.44
2019-02-08T06:39:19.036Z,54.51
2019-02-08T06:41:20.639Z,54.57
2019-02-08T06:43:22.265Z,54.59
2019-02-08T06:45:23.866Z,54.58
2019-02-08T06:47:25.509Z,54.67
2019-02-08T06:49:27.121Z,54.52
2019-02-08T06:51:28.717Z,54.52
2019-02-08T06:53:30.352Z,54.67
2019-02-08T06:55:31.954Z,55.01
2019-02-08T06:57:33.550Z,54.86
2019-02-08T06:59:35.179Z,54.86
2019-02-08T07:01:39.337Z,54.77
2019-02-08T07:03:41.687Z,54.81
2019-02-08T07:05:43.745Z,55.03
2019-02-08T07:07:51.931Z,54.81
2019-02-08T07:10:11.276Z,54.89
2019-02-08T07:12:28.626Z,54.68
2019-02-08T07:14:49.092Z,54.52
2019-02-08T07:17:06.387Z,54.24
2019-02-08T07:19:26.788Z,54.15
2019-02-08T07:21:40.168Z,54.05
2019-02-08T07:23:47.223Z,53.89
2019-02-08T07:26:04.580Z,53.75
2019-02-08T07:28:06.188Z,53.49
2019-02-08T07:30:11.431Z,53.51
2019-02-08T07:32:18.664Z,53.26
2019-02-08T07:34:35.950Z,53.36
2019-02-08T07:36:37.549Z,53.42
2019-02-08T07:38:43.150Z,53.28
2019-02-08T07:40:44.789Z,54.01
2019-02-08T07:43:02.009Z,53.55
2019-02-08T07:45:10.189Z,53.35
2019-02-08T07:47:16.343Z,53.33
2019-02-08T07:49:18.845Z,53.21
2019-02-08T07:51:37.293Z,53.15
2019-02-08T07:53:41.419Z,53.10
2019-02-08T07:55:44.653Z,53.08
2019-02-08T07:57:47.645Z,53.00
2019-02-08T08:00:06.006Z,53.04
2019-02-08T08:02:18.411Z,53.08
2019-02-08T08:04:25.788Z,53.09
2019-02-08T08:06:32.268Z,53.06
2019-02-08T08:08:51.599Z,53.03
2019-02-08T08:11:08.096Z,52.95
2019-02-08T08:13:10.173Z,52.91
2019-02-08T08:15:13.609Z,52.82
2019-02-08T08:17:32.979Z,52.73
2019-02-08T08:19:37.334Z,52.64
2019-02-08T08:21:57.777Z,52.50
2019-02-08T08:24:15.121Z,52.35
2019-02-08T08:26:20.185Z,52.09
2019-02-08T08:28:25.695Z,51.72
2019-02-08T08:30:30.944Z,51.22
2019-02-08T08:32:32.552Z,50.83
2019-02-08T08:34:34.160Z,50.52
2019-02-08T08:36:35.744Z,50.30
2019-02-08T08:38:37.361Z,49.96
2019-02-08T08:40:38.969Z,49.73
2019-02-08T08:42:40.589Z,49.63
2019-02-08T08:44:42.213Z,49.56
2019-02-08T08:46:43.815Z,49.36
2019-02-08T08:48:45.419Z,49.33
2019-02-08T08:50:47.056Z,49.25
2019-02-08T08:52:48.642Z,49.32
2019-02-08T08:54:50.223Z,49.28
2019-02-08T08:56:51.817Z,49.31
2019-02-08T08:58:53.413Z,49.38
2019-02-08T09:00:55.062Z,49.48
2019-02-08T09:02:56.648Z,49.54
2019-02-08T09:04:58.256Z,49.57
2019-02-08T09:06:59.898Z,49.61
2019-02-08T09:09:01.536Z,49.60
2019-02-08T09:11:03.134Z,49.66
2019-02-08T09:13:04.767Z,49.64
2019-02-08T09:15:06.375Z,49.61
2019-02-08T09:17:08.014Z,49.58
2019-02-08T09:19:09.620Z,49.60
2019-02-08T09:21:11.224Z,49.50
2019-02-08T09:23:12.849Z,49.50
2019-02-08T09:25:14.447Z,49.45
2019-02-08T09:27:16.041Z,49.47
2019-02-08T09:29:17.691Z,49.58
2019-02-08T09:31:19.304Z,49.39
2019-02-08T09:33:20.932Z,49.36
2019-02-08T09:35:22.557Z,49.37
2019-02-08T09:37:24.163Z,49.37
2019-02-08T09:39:25.793Z,49.44
2019-02-08T09:41:27.394Z,49.47
2019-02-08T09:43:28.983Z,49.53
2019-02-08T09:45:30.577Z,49.58
2019-02-08T09:47:32.163Z,49.53
2019-02-08T09:49:33.767Z,49.70
2019-02-08T09:51:35.375Z,49.46
2019-02-08T09:53:37.007Z,49.43
2019-02-08T09:55:38.606Z,49.28
2019-02-08T09:57:40.228Z,49.44
2019-02-08T09:59:41.826Z,49.03
2019-02-08T10:01:43.469Z,48.89
2019-02-08T10:03:45.134Z,48.99
2019-02-08T10:05:46.748Z,48.88
2019-02-08T10:07:48.346Z,48.95
2019-02-08T10:09:49.979Z,48.89
2019-02-08T10:11:51.584Z,48.52
2019-02-08T10:13:53.181Z,48.25
2019-02-08T10:15:54.792Z,48.12
2019-02-08T10:17:56.393Z,47.88
2019-02-08T10:19:58.008Z,47.84
2019-02-08T10:21:59.617Z,47.78
2019-02-08T10:24:01.283Z,47.67
2019-02-08T10:26:05.341Z,47.70
2019-02-08T10:28:04.612Z,47.99
2019-02-08T10:30:06.210Z,48.12
2019-02-08T10:32:07.847Z,48.13
2019-02-08T10:34:09.447Z,48.14
2019-02-08T10:36:11.074Z,48.13
2019-02-08T10:38:12.677Z,48.11
2019-02-08T10:40:14.264Z,48.13
2019-02-08T10:42:15.862Z,48.06
2019-02-08T10:44:17.499Z,48.08
2019-02-08T10:46:19.093Z,47.96
2019-02-08T10:48:20.695Z,47.88
2019-02-08T10:50:22.332Z,47.95
2019-02-08T10:52:24.716Z,47.93
2019-02-08T10:54:25.799Z,47.96
2019-02-08T10:56:27.394Z,47.96
2019-02-08T10:58:29.051Z,47.91
2019-02-08T11:00:30.699Z,47.97
2019-02-08T11:02:32.289Z,47.93
2019-02-08T11:04:33.902Z,47.93
2019-02-08T11:06:35.526Z,48.01
2019-02-08T11:08:37.638Z,48.03
2019-02-08T11:10:39.330Z,48.01
2019-02-08T11:12:40.915Z,48.02
2019-02-08T11:14:42.501Z,48.10
2019-02-08T11:16:44.111Z,48.21
2019-02-08T11:18:45.709Z,48.15
2019-02-08T11:20:47.303Z,48.12
2019-02-08T11:22:48.898Z,48.05
2019-02-08T11:24:50.504Z,48.03
2019-02-08T11:26:52.111Z,48.00
2019-02-08T11:28:53.719Z,47.96
2019-02-08T11:30:55.364Z,47.98
2019-02-08T11:32:57.064Z,47.87
2019-02-08T11:34:58.671Z,47.78
2019-02-08T11:37:00.287Z,47.77
2019-02-08T11:39:01.891Z,47.75
2019-02-08T11:41:03.513Z,47.68
2019-02-08T11:43:05.105Z,47.69
2019-02-08T11:45:06.908Z,47.71
2019-02-08T11:47:08.547Z,47.72
2019-02-08T11:49:10.204Z,47.73
2019-02-08T11:51:12.012Z,47.70
2019-02-08T11:53:13.605Z,47.68
2019-02-08T11:55:15.208Z,47.64
2019-02-08T11:57:16.877Z,47.75
2019-02-08T11:59:19.922Z,47.76
2019-02-08T12:01:21.563Z,47.84
2019-02-08T12:03:23.163Z,48.02
2019-02-08T12:05:24.757Z,48.18
2019-02-08T12:07:26.391Z,48.30
2019-02-08T12:09:28.001Z,48.53
2019-02-08T12:11:29.611Z,48.60
2019-02-08T12:13:31.210Z,48.80
2019-02-08T12:15:32.975Z,48.95
2019-02-08T12:17:38.431Z,49.05
2019-02-08T12:19:40.039Z,49.24
2019-02-08T12:21:41.702Z,49.26
2019-02-08T12:23:43.344Z,49.38
2019-02-08T12:25:44.952Z,49.45
2019-02-08T12:27:46.550Z,49.47
2019-02-08T12:29:48.135Z,49.53
2019-02-08T12:31:49.740Z,49.51
2019-02-08T12:33:51.343Z,49.51
2019-02-08T12:35:52.951Z,49.50
2019-02-08T12:37:54.578Z,49.47
2019-02-08T12:39:56.195Z,49.46
2019-02-08T12:41:57.817Z,49.35
2019-02-08T12:43:59.495Z,49.24
2019-02-08T12:46:01.112Z,49.05
2019-02-08T12:48:02.825Z,48.92
2019-02-08T12:50:04.445Z,48.66
2019-02-08T12:52:06.078Z,48.33
2019-02-08T12:54:07.688Z,48.00
2019-02-08T12:56:09.304Z,47.55
2019-02-08T12:58:10.919Z,47.25
2019-02-08T13:00:12.518Z,47.19
2019-02-08T13:02:14.156Z,47.28
2019-02-08T13:04:15.783Z,47.27
2019-02-08T13:06:17.378Z,47.32
2019-02-08T13:08:18.969Z,47.23
2019-02-08T13:10:20.603Z,47.23
2019-02-08T13:12:22.249Z,47.23
2019-02-08T13:14:23.832Z,47.28
2019-02-08T13:16:25.425Z,47.40
2019-02-08T13:18:27.020Z,47.48
2019-02-08T13:20:28.629Z,47.58
2019-02-08T13:22:30.228Z,47.74
2019-02-08T13:24:31.849Z,47.98
2019-02-08T13:26:33.460Z,48.16
2019-02-08T13:28:35.058Z,48.29
2019-02-08T13:30:36.663Z,48.49
2019-02-08T13:32:38.257Z,48.67
2019-02-08T13:34:39.858Z,48.77
2019-02-08T13:36:41.496Z,48.85
2019-02-08T13:38:43.127Z,48.90
2019-02-08T13:40:44.712Z,48.96
2019-02-08T13:42:46.351Z,49.00
2019-02-08T13:44:48.043Z,48.97
2019-02-08T13:46:49.883Z,48.99
2019-02-08T13:48:51.613Z,49.03
2019-02-08T13:50:53.282Z,49.02
2019-02-08T13:52:54.924Z,48.99
2019-02-08T13:54:56.564Z,48.97
2019-02-08T13:57:00.664Z,48.92
2019-02-08T13:58:59.870Z,48.87
2019-02-08T14:01:01.524Z,48.83
2019-02-08T14:03:03.136Z,48.78
2019-02-08T14:05:05.179Z,48.68
2019-02-08T14:07:06.818Z,48.50
2019-02-08T14:09:08.399Z,48.37
2019-02-08T14:11:09.994Z,48.23
2019-02-08T14:13:11.585Z,48.12
2019-02-08T14:15:13.195Z,47.94
2019-02-08T14:17:14.782Z,47.82
2019-02-08T14:19:16.406Z,47.66
2019-02-08T14:21:17.997Z,47.56
2019-02-08T14:23:19.617Z,47.47
2019-02-08T14:25:21.224Z,47.44
2019-02-08T14:27:22.864Z,47.40
2019-02-08T14:29:24.471Z,47.35
2019-02-08T14:31:26.123Z,47.36
2019-02-08T14:33:27.722Z,47.39
2019-02-08T14:35:29.401Z,47.36
2019-02-08T14:37:31.003Z,47.35
2019-02-08T14:39:32.601Z,47.50
2019-02-08T14:41:34.205Z,47.60
2019-02-08T14:43:35.802Z,47.67
2019-02-08T14:45:37.409Z,47.73
2019-02-08T14:47:39.032Z,47.78
2019-02-08T14:49:40.639Z,47.87
2019-02-08T14:51:42.238Z,47.92
2019-02-08T14:53:43.820Z,47.94
2019-02-08T14:55:45.416Z,48.06
2019-02-08T14:57:47.064Z,48.10
2019-02-08T14:59:48.676Z,48.17
2019-02-08T15:01:50.273Z,48.22
2019-02-08T15:03:51.880Z,48.28
2019-02-08T15:05:53.467Z,48.34
2019-02-08T15:07:55.066Z,48.44
2019-02-08T15:09:56.690Z,48.44
2019-02-08T15:11:58.331Z,48.49
2019-02-08T15:13:59.930Z,48.53
2019-02-08T15:16:01.535Z,48.51
2019-02-08T15:18:03.180Z,48.53
2019-02-08T15:20:04.767Z,48.57
2019-02-08T15:22:06.376Z,48.50
2019-02-08T15:24:08.011Z,48.50
2019-02-08T15:26:09.630Z,48.49
2019-02-08T15:28:11.245Z,48.40
2019-02-08T15:30:12.870Z,48.35
2019-02-08T15:32:14.465Z,48.31
2019-02-08T15:34:16.071Z,48.22
2019-02-08T15:36:17.666Z,48.13
2019-02-08T15:38:19.266Z,48.08
2019-02-08T15:40:20.881Z,47.97
2019-02-08T15:42:22.460Z,47.90
2019-02-08T15:44:24.050Z,47.83
2019-02-08T15:46:25.699Z,47.76
2019-02-08T15:48:27.373Z,47.70
2019-02-08T15:50:28.987Z,47.63
2019-02-08T15:52:30.616Z,47.53
2019-02-08T15:54:32.247Z,47.51
2019-02-08T15:56:33.852Z,47.47
2019-02-08T15:58:35.460Z,47.48
2019-02-08T16:00:37.092Z,47.44
2019-02-08T16:02:38.694Z,47.48
2019-02-08T16:04:40.299Z,47.39
2019-02-08T16:06:41.904Z,47.45
2019-02-08T16:08:43.516Z,47.49
2019-02-08T16:10:45.133Z,47.51
2019-02-08T16:12:47.685Z,47.55
2019-02-08T16:14:48.420Z,47.59
2019-02-08T16:16:50.013Z,47.62
2019-02-08T16:18:51.605Z,47.71
2019-02-08T16:20:53.191Z,47.72
2019-02-08T16:22:54.794Z,47.74
2019-02-08T16:24:56.418Z,47.82
2019-02-08T16:26:58.018Z,47.86
2019-02-08T16:28:59.613Z,47.84
2019-02-08T16:31:01.223Z,47.97
2019-02-08T16:33:02.818Z,47.97
2019-02-08T16:35:04.441Z,47.99
2019-02-08T16:37:06.052Z,48.02
2019-02-08T16:39:07.660Z,48.06
2019-02-08T16:41:09.270Z,48.09
2019-02-08T16:43:10.903Z,48.12
2019-02-08T16:45:12.492Z,48.11
2019-02-08T16:47:14.114Z,48.12
2019-02-08T16:49:15.712Z,48.13
2019-02-08T16:51:17.331Z,48.13
2019-02-08T16:53:18.929Z,48.14
2019-02-08T16:55:20.530Z,48.11
2019-02-08T16:57:22.125Z,48.06
2019-02-08T16:59:23.755Z,48.03
2019-02-08T17:01:25.358Z,48.01
2019-02-08T17:03:26.965Z,47.95
2019-02-08T17:05:28.568Z,47.95
2019-02-08T17:07:30.160Z,47.85
2019-02-08T17:09:32.035Z,47.81
2019-02-08T17:11:33.714Z,47.78
2019-02-08T17:13:35.313Z,47.71
2019-02-08T17:15:36.919Z,47.62
2019-02-08T17:17:38.517Z,47.58
2019-02-08T17:19:40.173Z,47.59
2019-02-08T17:21:41.760Z,47.56
2019-02-08T17:23:43.358Z,47.53
2019-02-08T17:25:44.981Z,47.49
2019-02-08T17:27:46.882Z,47.60
2019-02-08T17:29:48.477Z,47.73
2019-02-08T17:31:50.097Z,47.86
2019-02-08T17:33:51.680Z,48.04
2019-02-08T17:35:53.275Z,48.23
2019-02-08T17:37:54.885Z,48.41
2019-02-08T17:39:56.482Z,48.49
2019-02-08T17:41:58.078Z,48.59
2019-02-08T17:43:59.755Z,48.52
2019-02-08T17:46:01.363Z,48.48
2019-02-08T17:48:03.010Z,48.45
2019-02-08T17:50:04.649Z,48.35
2019-02-08T17:52:06.267Z,48.30
2019-02-08T17:54:07.878Z,48.20
2019-02-08T17:56:09.504Z,48.13
2019-02-08T17:58:11.101Z,48.03
2019-02-08T18:00:12.726Z,47.89
2019-02-08T18:02:14.497Z,47.76
2019-02-08T18:04:16.185Z,47.68
2019-02-08T18:06:17.801Z,47.58
2019-02-08T18:08:19.407Z,47.44
2019-02-08T18:10:21.065Z,47.30
2019-02-08T18:12:22.675Z,47.17
2019-02-08T18:14:24.273Z,47.09
2019-02-08T18:16:25.865Z,47.02
2019-02-08T18:18:27.466Z,47.02
2019-02-08T18:20:29.062Z,46.92
2019-02-08T18:22:30.654Z,46.96
2019-02-08T18:24:32.290Z,46.83
2019-02-08T18:26:33.895Z,46.35
2019-02-08T18:28:35.508Z,45.23
2019-02-08T18:30:37.153Z,44.95
2019-02-08T18:32:38.756Z,45.56
2019-02-08T18:34:40.354Z,45.26
2019-02-08T18:36:41.959Z,45.14
2019-02-08T18:38:43.572Z,45.12
2019-02-08T18:40:45.174Z,44.97
2019-02-08T18:42:46.878Z,45.27
2019-02-08T18:44:48.522Z,45.04
2019-02-08T18:46:50.186Z,45.06
2019-02-08T18:48:51.798Z,45.05
2019-02-08T18:50:53.403Z,45.47
2019-02-08T18:52:55.141Z,45.68
2019-02-08T18:54:56.782Z,45.68
2019-02-08T18:56:58.399Z,45.71
2019-02-08T18:59:00.013Z,45.87
2019-02-08T19:01:01.671Z,46.00
2019-02-08T19:03:03.283Z,46.15
2019-02-08T19:05:04.890Z,46.06
2019-02-08T19:07:06.559Z,46.26
2019-02-08T19:09:08.356Z,46.58
2019-02-08T19:11:10.201Z,46.29
2019-02-08T19:13:11.932Z,46.67
2019-02-08T19:15:13.568Z,47.07
2019-02-08T19:17:15.169Z,47.08
2019-02-08T19:19:16.814Z,47.49
2019-02-08T19:21:18.452Z,47.44
2019-02-08T19:23:20.043Z,47.33
2019-02-08T19:25:21.670Z,48.04
2019-02-08T19:27:23.310Z,48.18
2019-02-08T19:29:24.920Z,48.52
2019-02-08T19:31:26.539Z,48.71
2019-02-08T19:33:28.169Z,49.00
2019-02-08T19:35:29.799Z,48.82
2019-02-08T19:37:31.403Z,48.81
2019-02-08T19:39:33.041Z,48.69
2019-02-08T19:41:34.634Z,48.76
2019-02-08T19:43:36.225Z,48.95
2019-02-08T19:45:37.893Z,48.19
2019-02-08T19:47:40.332Z,48.44
2019-02-08T19:49:42.033Z,48.14
2019-02-08T19:51:43.645Z,48.19
2019-02-08T19:53:45.245Z,48.82
2019-02-08T19:55:46.856Z,48.45
2019-02-08T19:57:48.516Z,48.58
2019-02-08T19:59:50.128Z,48.45
2019-02-08T20:01:51.725Z,48.17
2019-02-08T20:03:53.333Z,48.07
2019-02-08T20:05:54.938Z,48.02
2019-02-08T20:07:56.543Z,48.14
2019-02-08T20:09:58.193Z,48.15
2019-02-08T20:11:59.800Z,48.46
2019-02-08T20:14:02.203Z,48.34
2019-02-08T20:16:03.922Z,48.44
2019-02-08T20:18:05.576Z,48.13
2019-02-08T20:20:07.246Z,48.28
2019-02-08T20:22:08.859Z,48.57
2019-02-08T20:24:10.542Z,48.47
2019-02-08T20:26:12.186Z,48.23
2019-02-08T20:28:13.829Z,48.38
2019-02-08T20:30:15.460Z,48.50
2019-02-08T20:32:17.046Z,48.53
2019-02-08T20:34:18.645Z,48.54
2019-02-08T20:36:20.279Z,48.58
2019-02-08T20:38:21.879Z,48.63
2019-02-08T20:40:23.481Z,48.61
2019-02-08T20:42:25.068Z,48.34
2019-02-08T20:44:26.662Z,48.23
2019-02-08T20:46:28.253Z,48.19
2019-02-08T20:48:29.869Z,48.60
2019-02-08T20:50:31.472Z,48.23
2019-02-08T20:52:33.083Z,47.63
2019-02-08T20:54:34.677Z,47.93
2019-02-08T20:56:36.322Z,47.88
2019-02-08T20:58:38.647Z,47.94
2019-02-08T21:00:40.280Z,48.14
2019-02-08T21:02:41.948Z,48.40
2019-02-08T21:04:43.551Z,48.31
2019-02-08T21:06:45.147Z,48.52
2019-02-08T21:08:46.750Z,48.79
2019-02-08T21:10:48.384Z,48.68
2019-02-08T21:12:49.992Z,48.96
2019-02-08T21:14:51.585Z,48.68
2019-02-08T21:16:53.179Z,46.43
2019-02-08T21:18:54.825Z,48.43
2019-02-08T21:20:56.418Z,48.11
2019-02-08T21:22:58.031Z,48.45
2019-02-08T21:24:59.687Z,48.53
2019-02-08T21:27:01.272Z,48.86
2019-02-08T21:29:02.880Z,48.26
2019-02-08T21:31:04.505Z,48.04
2019-02-08T21:33:06.177Z,48.15
2019-02-08T21:35:07.860Z,48.50
2019-02-08T21:37:09.483Z,48.46
2019-02-08T21:39:11.081Z,48.54
2019-02-08T21:41:12.692Z,47.74
2019-02-08T21:43:14.329Z,47.83
2019-02-08T21:45:15.921Z,47.93
2019-02-08T21:47:17.521Z,48.04
2019-02-08T21:49:19.113Z,48.03
2019-02-08T21:51:20.716Z,48.04
2019-02-08T21:53:22.342Z,48.12
2019-02-08T21:55:23.933Z,48.21
2019-02-08T21:57:25.537Z,48.14
2019-02-08T21:59:27.132Z,48.33
2019-02-08T22:01:28.758Z,48.33
2019-02-08T22:03:30.381Z,48.40
2019-02-08T22:05:31.965Z,48.31
2019-02-08T22:07:33.568Z,48.40
2019-02-08T22:09:35.179Z,48.47
2019-02-08T22:11:36.788Z,48.68
2019-02-08T22:13:38.416Z,48.60
2019-02-08T22:15:40.042Z,48.89
2019-02-08T22:17:41.716Z,49.46
2019-02-08T22:19:43.318Z,49.73
2019-02-08T22:21:44.924Z,49.88
2019-02-08T22:23:46.545Z,50.03
2019-02-08T22:25:48.124Z,50.14
2019-02-08T22:27:49.720Z,50.29
2019-02-08T22:29:51.309Z,50.45
2019-02-08T22:31:52.936Z,50.80
2019-02-08T22:33:54.543Z,51.07
2019-02-08T22:35:56.141Z,51.16
2019-02-08T22:37:57.773Z,51.30
2019-02-08T22:39:59.376Z,51.42
2019-02-08T22:42:00.982Z,51.46
2019-02-08T22:44:02.593Z,51.47
2019-02-08T22:46:04.186Z,51.58
2019-02-08T22:48:05.785Z,51.61
2019-02-08T22:50:07.429Z,51.66
2019-02-08T22:52:09.026Z,51.60
2019-02-08T22:54:10.617Z,51.59
2019-02-08T22:56:12.255Z,51.63
2019-02-08T22:58:13.847Z,51.63
2019-02-08T23:00:15.446Z,51.76
2019-02-08T23:02:17.038Z,51.74
2019-02-08T23:04:18.644Z,51.93
2019-02-08T23:06:20.237Z,52.07
2019-02-08T23:08:21.868Z,52.15
2019-02-08T23:10:23.463Z,52.10
2019-02-08T23:12:25.058Z,52.16
2019-02-08T23:14:26.653Z,52.21
2019-02-08T23:16:28.253Z,52.28
2019-02-08T23:18:29.884Z,52.30
2019-02-08T23:20:31.493Z,52.60
2019-02-08T23:22:33.108Z,52.66
2019-02-08T23:24:34.691Z,52.68
2019-02-08T23:26:36.301Z,52.84
2019-02-08T23:28:37.931Z,52.92
2019-02-08T23:30:39.539Z,52.87
2019-02-08T23:32:41.183Z,53.14
2019-02-08T23:34:42.784Z,53.32
2019-02-08T23:36:44.385Z,53.32
2019-02-08T23:38:46.020Z,53.63
2019-02-08T23:40:47.630Z,53.74
2019-02-08T23:42:49.267Z,53.60
2019-02-08T23:44:50.865Z,53.70
2019-02-08T23:46:52.458Z,53.59
2019-02-08T23:48:54.093Z,53.60
2019-02-08T23:50:55.695Z,53.45
2019-02-08T23:52:57.289Z,53.65
2019-02-08T23:54:58.943Z,53.58
2019-02-08T23:57:00.538Z,53.59
2019-02-08T23:59:02.152Z,53.67
